createdAt,value
2022-11-15T00:00:56.762Z,13.10
2022-11-15T00:03:28.307Z,12.80
2022-11-15T00:05:55.152Z,12.88
2022-11-15T00:08:21.612Z,12.45
2022-11-15T00:11:03.005Z,12.20
2022-11-15T00:13:30.834Z,11.20
2022-11-15T00:15:59.167Z,11.30
2022-11-15T00:18:26.087Z,13.27
2022-11-15T00:20:52.688Z,14.07
2022-11-15T00:23:21.407Z,12.88
2022-11-15T00:25:47.864Z,14.48
2022-11-15T00:28:14.330Z,14.75
2022-11-15T00:30:43.029Z,14.63
2022-11-15T00:33:10.571Z,14.68
2022-11-15T00:35:37.098Z,14.35
2022-11-15T00:38:04.047Z,14.88
2022-11-15T00:40:30.945Z,15.07
2022-11-15T00:42:58.248Z,13.23
2022-11-15T00:45:27.979Z,12.85
2022-11-15T00:47:54.397Z,12.25
2022-11-15T00:50:20.846Z,11.63
2022-11-15T00:52:47.293Z,10.88
2022-11-15T00:55:18.146Z,10.15
2022-11-15T00:57:45.145Z,10.82
2022-11-15T01:00:12.297Z,10.18
2022-11-15T01:02:38.810Z,10.18
2022-11-15T01:05:05.737Z,9.38
2022-11-15T01:07:32.610Z,9.15
2022-11-15T01:09:59.077Z,9.90
2022-11-15T01:12:25.583Z,9.45
2022-11-15T01:14:52.005Z,9.18
2022-11-15T01:17:18.521Z,10.38
2022-11-15T01:19:47.425Z,10.02
2022-11-15T01:22:13.883Z,10.55
2022-11-15T01:24:40.373Z,10.27
2022-11-15T01:27:06.818Z,9.65
2022-11-15T01:29:33.832Z,9.55
2022-11-15T01:32:00.301Z,9.05
2022-11-15T01:34:28.900Z,8.85
2022-11-15T01:36:55.323Z,9.00
2022-11-15T01:39:21.833Z,8.75
2022-11-15T01:41:48.263Z,9.75
2022-11-15T01:44:49.976Z,9.13
2022-11-15T01:47:20.465Z,8.88
2022-11-15T01:49:58.351Z,9.65
2022-11-15T01:52:27.034Z,9.85
2022-11-15T01:55:02.757Z,8.95
2022-11-15T01:57:29.373Z,8.93
2022-11-15T01:59:56.875Z,8.85
2022-11-15T02:02:23.331Z,8.90
2022-11-15T02:04:49.832Z,8.73
2022-11-15T02:07:19.440Z,9.23
2022-11-15T02:09:46.829Z,9.05
2022-11-15T02:12:17.906Z,8.65
2022-11-15T02:14:49.139Z,9.10
2022-11-15T02:17:34.188Z,9.57
2022-11-15T02:20:12.860Z,9.50
2022-11-15T02:23:03.735Z,10.40
2022-11-15T02:26:19.408Z,9.85
2022-11-15T02:28:56.977Z,10.07
2022-11-15T02:31:26.465Z,9.25
2022-11-15T02:34:30.654Z,9.82
2022-11-15T02:37:29.291Z,10.35
2022-11-15T02:40:01.963Z,9.77
2022-11-15T02:42:53.387Z,10.03
2022-11-15T02:45:28.792Z,9.75
2022-11-15T02:47:57.587Z,9.63
2022-11-15T02:50:29.093Z,8.90
2022-11-15T02:52:58.869Z,9.48
2022-11-15T02:55:34.382Z,9.38
2022-11-15T02:58:16.017Z,9.05
2022-11-15T03:00:55.277Z,8.80
2022-11-15T03:03:32.174Z,9.48
2022-11-15T03:06:01.598Z,9.80
2022-11-15T03:08:46.017Z,9.05
2022-11-15T03:11:16.330Z,9.25
2022-11-15T03:14:27.223Z,9.77
2022-11-15T03:17:11.774Z,8.68
2022-11-15T03:19:58.410Z,9.00
2022-11-15T03:22:29.585Z,8.48
2022-11-15T03:25:00.529Z,9.27
2022-11-15T03:27:33.505Z,8.50
2022-11-15T03:30:04.641Z,9.68
2022-11-15T03:32:37.474Z,9.25
2022-11-15T03:35:09.568Z,9.88
2022-11-15T03:37:50.228Z,9.20
2022-11-15T03:40:18.448Z,9.13
2022-11-15T03:42:56.325Z,9.68
2022-11-15T03:45:55.648Z,9.60
2022-11-15T03:48:28.811Z,9.23
2022-11-15T03:50:56.542Z,9.07
2022-11-15T03:53:23.206Z,9.52
2022-11-15T03:55:52.024Z,9.05
2022-11-15T03:58:18.476Z,9.18
2022-11-15T04:00:44.959Z,9.65
2022-11-15T04:03:11.372Z,9.60
2022-11-15T04:05:37.840Z,9.02
2022-11-15T04:08:04.520Z,9.57
2022-11-15T04:10:30.977Z,8.80
2022-11-15T04:12:57.454Z,9.38
2022-11-15T04:15:24.613Z,9.23
2022-11-15T04:17:53.304Z,9.48
2022-11-15T04:20:44.459Z,9.27
2022-11-15T04:23:37.472Z,9.10
2022-11-15T04:26:19.201Z,8.95
2022-11-15T04:29:04.357Z,8.95
2022-11-15T04:31:30.835Z,9.30
2022-11-15T04:33:57.458Z,9.20
2022-11-15T04:36:43.067Z,8.60
2022-11-15T04:39:09.639Z,8.88
2022-11-15T04:41:36.187Z,7.57
2022-11-15T04:44:02.621Z,11.68
2022-11-15T04:46:29.217Z,10.95
2022-11-15T04:48:58.954Z,9.90
2022-11-15T04:51:28.590Z,10.07
2022-11-15T04:53:54.974Z,10.05
2022-11-15T04:56:23.734Z,7.90
2022-11-15T04:58:50.641Z,9.18
2022-11-15T05:01:17.652Z,8.13
2022-11-15T05:04:03.731Z,8.15
2022-11-15T05:06:30.704Z,9.73
2022-11-15T05:08:59.994Z,9.27
2022-11-15T05:11:28.174Z,10.07
2022-11-15T05:13:54.942Z,10.15
2022-11-15T05:16:21.431Z,10.15
2022-11-15T05:18:48.044Z,10.57
2022-11-15T05:21:15.718Z,10.80
2022-11-15T05:23:42.382Z,10.73
2022-11-15T05:26:09.864Z,11.27
2022-11-15T05:28:37.475Z,10.98
2022-11-15T05:31:04.021Z,11.70
2022-11-15T05:33:31.611Z,13.27
2022-11-15T05:36:06.066Z,12.77
2022-11-15T05:38:32.725Z,13.43
2022-11-15T05:41:03.647Z,13.02
2022-11-15T05:43:34.369Z,32.42
2022-11-15T05:46:02.377Z,14.73
2022-11-15T05:48:28.917Z,14.68
2022-11-15T05:50:56.259Z,12.82
2022-11-15T05:53:26.887Z,11.57
2022-11-15T05:55:53.310Z,10.35
2022-11-15T05:58:22.806Z,17.45
2022-11-15T06:00:49.512Z,16.50
2022-11-15T06:03:15.986Z,16.20
2022-11-15T06:05:42.420Z,15.60
2022-11-15T06:08:08.893Z,14.50
2022-11-15T06:10:35.297Z,17.70
2022-11-15T06:13:05.751Z,15.50
2022-11-15T06:15:34.574Z,14.63
2022-11-15T06:18:01.735Z,13.80
2022-11-15T06:20:29.580Z,13.75
2022-11-15T06:23:00.129Z,16.90
2022-11-15T06:25:27.718Z,17.92
2022-11-15T06:27:56.077Z,17.55
2022-11-15T06:30:23.895Z,16.67
2022-11-15T06:32:50.469Z,16.58
2022-11-15T06:35:17.515Z,16.40
2022-11-15T06:37:44.423Z,16.40
2022-11-15T06:40:11.818Z,18.15
2022-11-15T06:42:38.345Z,16.85
2022-11-15T06:45:08.671Z,17.08
2022-11-15T06:50:04.301Z,17.33
2022-11-15T06:52:33.488Z,18.13
2022-11-15T06:54:59.951Z,18.27
2022-11-15T06:57:26.363Z,18.95
2022-11-15T06:59:55.536Z,18.85
2022-11-15T07:02:22.000Z,19.23
2022-11-15T07:04:48.462Z,18.63
2022-11-15T07:07:15.056Z,22.02
2022-11-15T07:09:41.561Z,20.30
2022-11-15T07:12:10.457Z,21.63
2022-11-15T07:14:36.980Z,26.10
2022-11-15T07:17:06.930Z,23.13
2022-11-15T07:19:35.966Z,27.42
2022-11-15T07:22:02.505Z,22.58
2022-11-15T07:24:29.321Z,23.38
2022-11-15T07:26:58.451Z,20.60
2022-11-15T07:29:24.953Z,20.80
2022-11-15T07:31:51.665Z,21.85
2022-11-15T07:34:18.189Z,20.83
2022-11-15T07:36:44.774Z,17.92
2022-11-15T07:39:13.155Z,13.75
2022-11-15T07:41:40.045Z,11.75
2022-11-15T07:44:06.528Z,8.77
2022-11-15T07:46:33.476Z,7.47
2022-11-15T07:48:59.909Z,8.13
2022-11-15T07:51:26.348Z,9.13
2022-11-15T07:53:55.310Z,15.30
2022-11-15T07:56:21.835Z,10.93
2022-11-15T07:58:48.311Z,8.65
2022-11-15T08:01:14.902Z,8.48
2022-11-15T08:03:41.519Z,9.13
2022-11-15T08:06:08.280Z,9.10
2022-11-15T08:08:34.857Z,8.55
2022-11-15T08:11:01.684Z,9.98
2022-11-15T08:13:28.683Z,10.32
2022-11-15T08:16:00.387Z,11.40
2022-11-15T08:18:27.095Z,11.23
2022-11-15T08:20:53.609Z,9.15
2022-11-15T08:23:20.229Z,9.02
2022-11-15T08:25:46.899Z,9.27
2022-11-15T08:28:13.378Z,10.23
2022-11-15T08:30:43.052Z,10.95
2022-11-15T08:33:16.985Z,11.07
2022-11-15T08:35:44.952Z,10.40
2022-11-15T08:38:12.027Z,11.38
2022-11-15T08:40:38.901Z,10.00
2022-11-15T08:43:07.621Z,9.25
2022-11-15T08:45:36.128Z,8.82
2022-11-15T08:48:03.690Z,10.93
2022-11-15T08:50:30.192Z,9.95
2022-11-15T08:52:56.669Z,10.75
2022-11-15T08:55:24.789Z,9.48
2022-11-15T08:57:51.613Z,9.80
2022-11-15T09:00:18.335Z,9.73
2022-11-15T09:02:44.804Z,10.80
2022-11-15T09:05:11.443Z,10.55
2022-11-15T09:07:37.993Z,10.95
2022-11-15T09:10:05.105Z,10.82
2022-11-15T09:12:31.670Z,11.70
2022-11-15T09:15:00.387Z,11.85
2022-11-15T09:17:26.927Z,11.98
2022-11-15T09:19:53.380Z,10.73
2022-11-15T09:22:19.891Z,10.43
2022-11-15T09:24:46.345Z,10.57
2022-11-15T09:27:14.330Z,10.35
2022-11-15T09:29:40.862Z,10.13
2022-11-15T09:32:09.954Z,10.10
2022-11-15T09:34:36.401Z,10.48
2022-11-15T09:37:02.843Z,10.55
2022-11-15T09:39:32.256Z,10.73
2022-11-15T09:42:11.585Z,10.43
2022-11-15T09:44:40.920Z,10.57
2022-11-15T09:47:39.341Z,10.75
2022-11-15T09:50:26.903Z,10.45
2022-11-15T09:52:53.329Z,10.50
2022-11-15T09:55:40.237Z,10.55
2022-11-15T09:58:26.020Z,11.90
2022-11-15T10:00:53.886Z,10.70
2022-11-15T10:03:35.636Z,10.77
2022-11-15T10:06:05.078Z,10.52
2022-11-15T10:08:36.915Z,10.15
2022-11-15T10:14:00.569Z,9.70
2022-11-15T10:16:39.556Z,10.15
2022-11-15T10:19:25.107Z,9.38
2022-11-15T10:22:37.750Z,10.05
2022-11-15T10:25:04.173Z,9.27
2022-11-15T10:27:30.795Z,9.38
2022-11-15T10:30:00.252Z,9.73
2022-11-15T10:32:26.707Z,9.90
2022-11-15T10:34:53.388Z,8.55
2022-11-15T10:37:33.575Z,9.38
2022-11-15T10:40:15.589Z,9.10
2022-11-15T10:42:42.051Z,8.98
2022-11-15T10:45:28.918Z,8.93
2022-11-15T10:48:12.841Z,9.02
2022-11-15T10:50:41.396Z,9.05
2022-11-15T10:53:32.676Z,8.60
2022-11-15T10:56:06.350Z,8.57
2022-11-15T10:58:39.946Z,8.45
2022-11-15T11:01:23.805Z,8.52
2022-11-15T11:04:08.590Z,9.00
2022-11-15T11:06:54.646Z,8.25
2022-11-15T11:09:43.315Z,8.35
2022-11-15T11:12:13.256Z,7.18
2022-11-15T11:14:40.420Z,8.95
2022-11-15T11:17:12.064Z,8.00
2022-11-15T11:19:53.732Z,8.07
2022-11-15T11:22:26.651Z,7.50
2022-11-15T11:25:11.490Z,7.20
2022-11-15T11:28:01.174Z,6.50
2022-11-15T11:30:53.836Z,6.47
2022-11-15T11:33:32.703Z,6.45
2022-11-15T11:36:03.189Z,6.47
2022-11-15T11:38:40.908Z,6.85
2022-11-15T11:41:45.744Z,6.40
2022-11-15T11:44:30.107Z,6.47
2022-11-15T11:47:07.700Z,6.95
2022-11-15T11:49:44.151Z,6.43
2022-11-15T11:52:30.327Z,6.40
2022-11-15T11:55:06.791Z,6.57
2022-11-15T11:57:56.097Z,6.80
2022-11-15T12:00:23.807Z,7.00
2022-11-15T12:03:06.452Z,6.75
2022-11-15T12:05:40.987Z,6.50
2022-11-15T12:08:40.008Z,6.18
2022-11-15T12:11:12.044Z,5.90
2022-11-15T12:13:39.609Z,6.85
2022-11-15T12:16:17.246Z,7.05
2022-11-15T12:18:55.647Z,7.22
2022-11-15T12:21:31.277Z,7.45
2022-11-15T12:24:05.314Z,7.72
2022-11-15T12:26:38.769Z,8.40
2022-11-15T12:29:17.886Z,8.98
2022-11-15T12:31:52.229Z,8.55
2022-11-15T12:34:18.644Z,9.38
2022-11-15T12:36:45.595Z,11.85
2022-11-15T12:39:16.308Z,9.50
2022-11-15T12:41:44.059Z,9.10
2022-11-15T12:44:33.959Z,8.85
2022-11-15T12:47:00.356Z,9.57
2022-11-15T12:49:26.817Z,10.15
2022-11-15T12:51:59.161Z,10.77
2022-11-15T12:54:25.632Z,10.73
2022-11-15T12:57:15.450Z,11.13
2022-11-15T13:00:02.402Z,10.43
2022-11-15T13:02:36.936Z,9.77
2022-11-15T13:05:21.176Z,10.82
2022-11-15T13:07:47.690Z,11.00
2022-11-15T13:10:14.331Z,10.68
2022-11-15T13:12:46.960Z,10.85
2022-11-15T13:15:13.485Z,10.85
2022-11-15T13:17:47.029Z,11.13
2022-11-15T13:20:16.213Z,11.82
2022-11-15T13:22:53.483Z,10.93
2022-11-15T13:25:54.050Z,10.48
2022-11-15T13:28:32.840Z,11.48
2022-11-15T13:31:02.179Z,11.90
2022-11-15T13:33:40.322Z,12.10
2022-11-15T13:36:24.311Z,12.07
2022-11-15T13:41:36.625Z,12.55
2022-11-15T13:44:21.677Z,14.05
2022-11-15T13:46:48.280Z,13.43
2022-11-15T13:49:15.468Z,13.55
2022-11-15T13:51:54.608Z,14.88
2022-11-15T13:54:32.264Z,13.80
2022-11-15T13:57:01.932Z,15.13
2022-11-15T13:59:55.777Z,16.25
2022-11-15T14:02:36.122Z,15.13
2022-11-15T14:05:28.992Z,14.15
2022-11-15T14:08:02.480Z,14.90
2022-11-15T14:10:38.480Z,15.65
2022-11-15T14:13:12.867Z,16.15
2022-11-15T14:15:43.340Z,15.65
2022-11-15T14:18:43.555Z,14.45
2022-11-15T14:21:10.236Z,15.65
2022-11-15T14:23:36.920Z,15.63
2022-11-15T14:26:10.278Z,15.40
2022-11-15T14:28:40.311Z,15.70
2022-11-15T14:31:13.748Z,15.30
2022-11-15T14:33:40.623Z,15.55
2022-11-15T14:36:13.729Z,15.13
2022-11-15T14:38:43.932Z,16.02
2022-11-15T14:41:19.996Z,16.60
2022-11-15T14:43:48.914Z,17.08
2022-11-15T14:46:15.534Z,17.75
2022-11-15T14:48:44.652Z,16.98
2022-11-15T14:51:16.802Z,17.38
2022-11-15T14:53:44.584Z,17.38
2022-11-15T14:56:14.191Z,17.55
2022-11-15T14:58:40.753Z,17.60
2022-11-15T15:01:26.089Z,18.10
2022-11-15T15:03:56.827Z,18.13
2022-11-15T15:06:23.859Z,17.83
2022-11-15T15:08:55.252Z,16.90
2022-11-15T15:11:23.174Z,18.60
2022-11-15T15:13:49.921Z,18.10
2022-11-15T15:16:16.433Z,18.25
2022-11-15T15:18:43.031Z,17.58
2022-11-15T15:21:23.468Z,18.60
2022-11-15T15:23:55.107Z,18.55
2022-11-15T15:26:23.586Z,20.00
2022-11-15T15:28:52.115Z,19.08
2022-11-15T15:31:19.264Z,22.23
2022-11-15T15:33:48.065Z,21.38
2022-11-15T15:36:18.400Z,22.92
2022-11-15T15:38:47.497Z,23.13
2022-11-15T15:41:16.262Z,20.60
2022-11-15T15:43:43.842Z,21.98
2022-11-15T15:46:15.939Z,26.92
2022-11-15T15:48:42.817Z,30.17
2022-11-15T15:51:17.008Z,31.27
2022-11-15T15:53:46.743Z,27.17
2022-11-15T15:56:13.323Z,26.70
2022-11-15T15:58:39.940Z,21.60
2022-11-15T16:01:06.689Z,18.52
2022-11-15T16:03:34.465Z,17.05
2022-11-15T16:06:05.260Z,17.92
2022-11-15T16:08:47.699Z,17.95
2022-11-15T16:11:21.004Z,18.80
2022-11-15T16:13:50.153Z,17.83
2022-11-15T16:16:16.877Z,17.35
2022-11-15T16:18:43.481Z,17.58
2022-11-15T16:21:10.055Z,17.38
2022-11-15T16:23:36.648Z,17.92
2022-11-15T16:26:05.794Z,17.10
2022-11-15T16:28:34.283Z,18.33
2022-11-15T16:31:11.464Z,19.33
2022-11-15T16:33:38.834Z,19.13
2022-11-15T16:36:09.624Z,19.50
2022-11-15T16:38:37.010Z,18.90
2022-11-15T16:41:03.702Z,23.00
2022-11-15T16:43:32.505Z,29.85
2022-11-15T16:45:59.054Z,26.08
2022-11-15T16:48:28.859Z,23.05
2022-11-15T16:50:57.393Z,21.27
2022-11-15T16:53:27.231Z,19.48
2022-11-15T16:55:55.142Z,18.60
2022-11-15T16:58:22.280Z,18.65
2022-11-15T17:00:55.732Z,20.23
2022-11-15T17:03:24.000Z,18.40
2022-11-15T17:05:51.067Z,17.92
2022-11-15T17:08:21.988Z,17.55
2022-11-15T17:10:48.880Z,18.17
2022-11-15T17:13:15.515Z,16.95
2022-11-15T17:15:42.468Z,16.67
2022-11-15T17:18:13.174Z,18.45
2022-11-15T17:20:41.506Z,18.33
2022-11-15T17:23:14.606Z,18.33
2022-11-15T17:25:41.714Z,17.70
2022-11-15T17:28:08.339Z,16.92
2022-11-15T17:30:35.774Z,17.80
2022-11-15T17:33:02.562Z,17.80
2022-11-15T17:35:29.150Z,17.90
2022-11-15T17:37:57.911Z,17.80
2022-11-15T17:40:24.481Z,19.85
2022-11-15T17:42:51.018Z,18.20
2022-11-15T17:45:17.781Z,18.35
2022-11-15T17:47:46.845Z,19.05
2022-11-15T17:50:13.480Z,18.77
2022-11-15T17:52:40.025Z,21.33
2022-11-15T17:55:06.881Z,22.35
2022-11-15T17:57:35.713Z,21.45
2022-11-15T18:00:06.345Z,19.67
2022-11-15T18:02:33.101Z,18.88
2022-11-15T18:05:03.318Z,17.95
2022-11-15T18:07:30.041Z,16.98
2022-11-15T18:09:58.986Z,16.70
2022-11-15T18:12:25.690Z,16.13
2022-11-15T18:14:52.242Z,17.00
2022-11-15T18:17:19.092Z,17.95
2022-11-15T18:19:48.718Z,21.73
2022-11-15T18:22:15.442Z,29.92
2022-11-15T18:24:43.799Z,24.90
2022-11-15T18:27:10.426Z,24.90
2022-11-15T18:29:39.182Z,26.20
2022-11-15T18:32:11.638Z,41.10
2022-11-15T18:34:38.709Z,36.80
2022-11-15T18:37:05.352Z,44.75
2022-11-15T18:39:32.135Z,31.42
2022-11-15T18:41:59.039Z,25.90
2022-11-15T18:44:25.732Z,22.85
2022-11-15T18:46:52.460Z,23.13
2022-11-15T18:49:20.508Z,22.60
2022-11-15T18:51:47.803Z,24.83
2022-11-15T18:54:15.777Z,25.83
2022-11-15T18:56:46.914Z,22.75
2022-11-15T18:59:14.668Z,24.30
2022-11-15T19:01:43.916Z,25.38
2022-11-15T19:04:17.686Z,24.85
2022-11-15T19:09:16.196Z,19.73
2022-11-15T19:11:44.680Z,18.65
2022-11-15T19:14:13.339Z,18.30
2022-11-15T19:16:42.146Z,19.98
2022-11-15T19:19:13.386Z,18.45
2022-11-15T19:21:40.481Z,17.83
2022-11-15T19:24:07.564Z,16.63
2022-11-15T19:26:36.890Z,17.77
2022-11-15T19:29:04.561Z,18.27
2022-11-15T19:31:34.354Z,17.05
2022-11-15T19:34:04.689Z,17.50
2022-11-15T19:36:42.379Z,17.27
2022-11-15T19:39:12.908Z,16.45
2022-11-15T19:41:42.482Z,16.13
2022-11-15T19:44:10.475Z,18.00
2022-11-15T19:46:38.302Z,17.92
2022-11-15T19:49:07.125Z,18.40
2022-11-15T19:51:36.705Z,17.00
2022-11-15T19:54:06.778Z,17.58
2022-11-15T19:56:34.440Z,20.60
2022-11-15T19:59:01.450Z,18.95
2022-11-15T20:01:33.720Z,18.50
2022-11-15T20:04:00.478Z,19.20
2022-11-15T20:06:39.741Z,16.80
2022-11-15T20:09:06.416Z,16.25
2022-11-15T20:11:34.220Z,16.65
2022-11-15T20:14:05.037Z,15.55
2022-11-15T20:16:34.040Z,14.50
2022-11-15T20:19:00.684Z,15.63
2022-11-15T20:21:27.577Z,19.17
2022-11-15T20:23:55.417Z,19.48
2022-11-15T20:26:22.503Z,16.90
2022-11-15T20:28:49.282Z,16.63
2022-11-15T20:31:16.683Z,16.08
2022-11-15T20:33:43.379Z,15.23
2022-11-15T20:36:15.682Z,17.52
2022-11-15T20:38:43.520Z,14.82
2022-11-15T20:41:12.071Z,13.95
2022-11-15T20:43:39.208Z,13.98
2022-11-15T20:46:06.222Z,14.63
2022-11-15T20:48:33.156Z,13.38
2022-11-15T20:51:19.690Z,14.00
2022-11-15T20:53:51.256Z,12.90
2022-11-15T20:56:20.087Z,14.25
2022-11-15T20:58:47.443Z,14.13
2022-11-15T21:01:15.496Z,14.32
2022-11-15T21:03:42.535Z,14.27
2022-11-15T21:06:10.372Z,14.43
2022-11-15T21:08:55.446Z,14.63
2022-11-15T21:11:40.896Z,14.02
2022-11-15T21:14:09.524Z,14.43
2022-11-15T21:16:37.295Z,14.70
2022-11-15T21:19:06.674Z,13.95
2022-11-15T21:21:38.819Z,14.60
2022-11-15T21:24:11.690Z,14.23
2022-11-15T21:26:40.670Z,14.40
2022-11-15T21:29:17.415Z,13.20
2022-11-15T21:31:47.537Z,13.77
2022-11-15T21:34:14.761Z,12.57
2022-11-15T21:36:41.747Z,12.75
2022-11-15T21:39:08.347Z,12.38
2022-11-15T21:41:35.299Z,13.35
2022-11-15T21:44:03.918Z,12.93
2022-11-15T21:46:31.655Z,12.13
2022-11-15T21:49:00.695Z,10.98
2022-11-15T21:51:27.379Z,12.18
2022-11-15T21:53:56.777Z,11.80
2022-11-15T21:56:25.624Z,11.60
2022-11-15T21:58:53.575Z,10.98
2022-11-15T22:01:42.571Z,11.18
2022-11-15T22:04:09.427Z,11.65
2022-11-15T22:06:36.581Z,10.82
2022-11-15T22:09:04.973Z,12.13
2022-11-15T22:11:34.403Z,13.95
2022-11-15T22:14:01.131Z,15.65
2022-11-15T22:16:27.709Z,14.80
2022-11-15T22:18:55.009Z,17.08
2022-11-15T22:21:21.842Z,18.05
2022-11-15T22:23:50.991Z,19.08
2022-11-15T22:26:23.508Z,14.52
2022-11-15T22:28:50.963Z,13.60
2022-11-15T22:31:19.756Z,13.75
2022-11-15T22:33:46.405Z,14.07
2022-11-15T22:36:13.497Z,12.35
2022-11-15T22:38:40.480Z,11.52
2022-11-15T22:41:07.387Z,11.50
2022-11-15T22:43:34.275Z,10.93
2022-11-15T22:46:04.655Z,10.40
2022-11-15T22:48:37.353Z,10.68
2022-11-15T22:51:05.517Z,10.38
2022-11-15T22:53:32.520Z,9.30
2022-11-15T22:56:01.219Z,9.43
2022-11-15T22:58:31.510Z,9.85
2022-11-15T23:01:00.838Z,9.88
2022-11-15T23:03:28.757Z,9.77
2022-11-15T23:06:00.481Z,10.35
2022-11-15T23:08:27.063Z,9.60
2022-11-15T23:11:13.623Z,9.50
2022-11-15T23:13:40.274Z,9.95
2022-11-15T23:16:48.170Z,10.48
2022-11-15T23:19:14.766Z,10.80
2022-11-15T23:22:02.660Z,10.45
2022-11-15T23:24:30.872Z,11.27
2022-11-15T23:27:03.606Z,11.80
2022-11-15T23:29:30.737Z,11.30
2022-11-15T23:32:15.986Z,10.05
2022-11-15T23:34:48.854Z,10.25
2022-11-15T23:37:15.788Z,10.40
2022-11-15T23:39:42.424Z,10.73
2022-11-15T23:42:09.769Z,10.20
2022-11-15T23:44:36.789Z,10.90
2022-11-15T23:47:03.736Z,10.80
2022-11-15T23:49:30.403Z,10.20
2022-11-15T23:51:57.032Z,10.90
2022-11-15T23:54:25.919Z,10.85
2022-11-15T23:56:52.519Z,10.63
2022-11-15T23:59:19.101Z,10.65
